createdAt,value
2022-11-09T00:02:25.921Z,8.65
2022-11-09T00:04:52.835Z,8.52
2022-11-09T00:07:21.160Z,6.38
2022-11-09T00:09:48.186Z,7.55
2022-11-09T00:12:15.183Z,6.85
2022-11-09T00:14:42.161Z,5.85
2022-11-09T00:17:09.120Z,5.30
2022-11-09T00:19:36.086Z,7.78
2022-11-09T00:22:03.017Z,6.47
2022-11-09T00:24:31.342Z,11.43
2022-11-09T00:26:58.263Z,11.13
2022-11-09T00:29:29.083Z,6.28
2022-11-09T00:31:56.043Z,6.70
2022-11-09T00:34:23.058Z,6.60
2022-11-09T00:36:50.040Z,7.07
2022-11-09T00:39:17.156Z,12.20
2022-11-09T00:41:45.470Z,13.82
2022-11-09T00:44:12.501Z,5.70
2022-11-09T00:46:39.640Z,6.93
2022-11-09T00:49:06.750Z,7.00
2022-11-09T00:51:34.003Z,8.00
2022-11-09T00:54:01.112Z,7.38
2022-11-09T00:56:29.165Z,9.30
2022-11-09T00:58:57.587Z,6.90
2022-11-09T01:01:24.782Z,4.82
2022-11-09T01:03:52.036Z,6.30
2022-11-09T01:06:21.240Z,7.35
2022-11-09T01:08:49.102Z,4.60
2022-11-09T01:11:18.414Z,9.80
2022-11-09T01:13:45.598Z,10.13
2022-11-09T01:16:15.475Z,7.25
2022-11-09T01:18:43.105Z,8.90
2022-11-09T01:21:11.686Z,8.63
2022-11-09T01:23:39.587Z,8.18
2022-11-09T01:26:10.268Z,6.63
2022-11-09T01:28:37.339Z,11.05
2022-11-09T01:31:07.011Z,9.18
2022-11-09T01:33:36.560Z,8.82
2022-11-09T01:36:04.542Z,11.82
2022-11-09T01:38:32.154Z,7.13
2022-11-09T01:40:59.469Z,8.68
2022-11-09T01:43:27.480Z,6.20
2022-11-09T01:45:58.943Z,8.57
2022-11-09T01:48:34.442Z,7.78
2022-11-09T01:51:08.726Z,6.32
2022-11-09T01:53:40.088Z,7.47
2022-11-09T01:56:13.661Z,6.95
2022-11-09T01:58:49.136Z,7.30
2022-11-09T02:01:18.148Z,6.18
2022-11-09T02:03:49.784Z,4.95
2022-11-09T02:06:20.641Z,10.15
2022-11-09T02:08:48.919Z,5.20
2022-11-09T02:11:19.141Z,3.60
2022-11-09T02:13:49.570Z,4.78
2022-11-09T02:16:18.566Z,10.40
2022-11-09T02:18:51.970Z,6.47
2022-11-09T02:21:22.245Z,8.10
2022-11-09T02:23:49.877Z,4.63
2022-11-09T02:26:23.774Z,11.90
2022-11-09T02:28:52.853Z,7.22
2022-11-09T02:31:22.182Z,8.25
2022-11-09T02:34:04.536Z,5.68
2022-11-09T02:36:34.861Z,9.38
2022-11-09T02:39:04.105Z,7.30
2022-11-09T02:41:32.436Z,4.03
2022-11-09T02:44:01.879Z,7.60
2022-11-09T02:46:32.851Z,5.43
2022-11-09T02:49:00.974Z,7.38
2022-11-09T02:51:28.556Z,5.70
2022-11-09T02:53:57.193Z,6.65
2022-11-09T02:56:24.884Z,12.57
2022-11-09T02:58:52.490Z,8.38
2022-11-09T03:01:19.643Z,5.55
2022-11-09T03:03:46.952Z,5.25
2022-11-09T03:06:14.456Z,5.90
2022-11-09T03:08:44.653Z,8.07
2022-11-09T03:11:13.185Z,5.70
2022-11-09T03:13:40.173Z,8.35
2022-11-09T03:16:09.470Z,5.22
2022-11-09T03:18:39.690Z,8.73
2022-11-09T03:21:07.687Z,10.00
2022-11-09T03:23:34.689Z,11.75
2022-11-09T03:26:02.978Z,5.50
2022-11-09T03:28:31.505Z,7.15
2022-11-09T03:30:58.617Z,7.20
2022-11-09T03:33:26.346Z,8.98
2022-11-09T03:35:53.708Z,10.65
2022-11-09T03:38:20.831Z,6.05
2022-11-09T03:40:50.370Z,6.13
2022-11-09T03:43:17.765Z,8.75
2022-11-09T03:45:46.697Z,8.35
2022-11-09T03:48:13.682Z,5.80
2022-11-09T03:50:40.744Z,8.15
2022-11-09T03:53:10.719Z,8.55
2022-11-09T03:55:38.352Z,9.73
2022-11-09T03:58:06.681Z,11.73
2022-11-09T04:00:33.760Z,6.90
2022-11-09T04:03:02.515Z,9.68
2022-11-09T04:05:29.471Z,5.00
2022-11-09T04:07:58.110Z,11.68
2022-11-09T04:10:26.523Z,10.35
2022-11-09T04:12:53.594Z,10.82
2022-11-09T04:15:20.691Z,6.07
2022-11-09T04:17:55.611Z,9.63
2022-11-09T04:20:24.529Z,7.70
2022-11-09T04:22:55.352Z,6.35
2022-11-09T04:25:22.641Z,11.52
2022-11-09T04:27:53.699Z,9.70
2022-11-09T04:30:20.621Z,7.40
2022-11-09T04:32:47.566Z,7.13
2022-11-09T04:35:14.689Z,9.20
2022-11-09T04:37:43.048Z,6.50
2022-11-09T04:40:11.312Z,7.30
2022-11-09T04:42:38.216Z,8.88
2022-11-09T04:45:06.095Z,11.88
2022-11-09T04:47:33.434Z,6.68
2022-11-09T04:50:00.697Z,11.00
2022-11-09T04:52:27.856Z,8.40
2022-11-09T04:54:56.189Z,14.32
2022-11-09T04:57:23.230Z,9.00
2022-11-09T04:59:50.202Z,12.45
2022-11-09T05:02:17.193Z,9.20
2022-11-09T05:04:44.192Z,12.70
2022-11-09T05:07:11.182Z,13.50
2022-11-09T05:09:38.346Z,8.68
2022-11-09T05:12:07.582Z,16.25
2022-11-09T05:14:34.549Z,8.95
2022-11-09T05:17:01.453Z,9.48
2022-11-09T05:19:28.399Z,11.43
2022-11-09T05:21:55.350Z,11.00
2022-11-09T05:24:22.328Z,11.32
2022-11-09T05:26:49.371Z,9.98
2022-11-09T05:29:17.681Z,12.57
2022-11-09T05:31:51.810Z,7.72
2022-11-09T05:34:19.703Z,8.25
2022-11-09T05:36:46.627Z,12.70
2022-11-09T05:39:13.610Z,11.90
2022-11-09T05:41:41.470Z,11.15
2022-11-09T05:44:11.560Z,11.10
2022-11-09T05:46:39.887Z,14.27
2022-11-09T05:49:13.156Z,17.15
2022-11-09T05:51:40.452Z,12.70
2022-11-09T05:54:10.536Z,13.60
2022-11-09T05:56:37.588Z,16.88
2022-11-09T05:59:05.101Z,10.63
2022-11-09T06:01:32.418Z,13.10
2022-11-09T06:04:01.099Z,10.68
2022-11-09T06:06:30.037Z,10.77
2022-11-09T06:08:57.568Z,16.08
2022-11-09T06:11:24.767Z,14.45
2022-11-09T06:13:52.179Z,10.73
2022-11-09T06:16:19.357Z,11.93
2022-11-09T06:18:46.384Z,11.50
2022-11-09T06:21:14.774Z,12.80
2022-11-09T06:23:41.889Z,11.88
2022-11-09T06:26:10.794Z,21.63
2022-11-09T06:28:38.573Z,9.20
2022-11-09T06:31:08.270Z,12.65
2022-11-09T06:33:36.774Z,11.85
2022-11-09T06:36:04.802Z,15.05
2022-11-09T06:38:33.249Z,12.45
2022-11-09T06:41:00.698Z,17.80
2022-11-09T06:43:28.545Z,16.38
2022-11-09T06:45:56.292Z,13.27
2022-11-09T06:48:24.064Z,11.05
2022-11-09T06:50:51.139Z,12.93
2022-11-09T06:53:19.351Z,12.80
2022-11-09T06:55:50.847Z,16.55
2022-11-09T06:58:19.563Z,14.35
2022-11-09T07:00:47.018Z,13.50
2022-11-09T07:03:14.864Z,14.13
2022-11-09T07:05:41.798Z,12.63
2022-11-09T07:08:08.777Z,16.70
2022-11-09T07:10:35.863Z,12.52
2022-11-09T07:13:04.464Z,11.75
2022-11-09T07:15:32.141Z,11.80
2022-11-09T07:18:00.446Z,10.13
2022-11-09T07:20:28.527Z,9.90
2022-11-09T07:22:55.725Z,13.98
2022-11-09T07:25:23.017Z,13.85
2022-11-09T07:27:50.795Z,15.02
2022-11-09T07:30:19.426Z,10.35
2022-11-09T07:33:08.069Z,8.18
2022-11-09T07:35:33.338Z,13.38
2022-11-09T07:38:01.486Z,14.40
2022-11-09T07:40:29.013Z,14.13
2022-11-09T07:42:58.334Z,10.95
2022-11-09T07:45:27.017Z,13.43
2022-11-09T07:47:56.428Z,15.48
2022-11-09T07:50:23.409Z,14.02
2022-11-09T07:52:50.492Z,10.82
2022-11-09T07:55:18.137Z,13.20
2022-11-09T07:57:47.096Z,11.88
2022-11-09T08:00:18.729Z,8.38
2022-11-09T08:02:51.057Z,10.60
2022-11-09T08:05:18.203Z,11.50
2022-11-09T08:07:45.232Z,10.07
2022-11-09T08:10:12.275Z,9.00
2022-11-09T08:12:39.518Z,14.05
2022-11-09T08:15:07.920Z,11.27
2022-11-09T08:17:35.469Z,10.95
2022-11-09T08:20:04.434Z,11.77
2022-11-09T08:22:31.540Z,8.48
2022-11-09T08:28:35.043Z,11.93
2022-11-09T08:31:36.148Z,6.97
2022-11-09T08:34:03.708Z,16.42
2022-11-09T08:36:34.033Z,13.05
2022-11-09T08:39:01.380Z,7.93
2022-11-09T08:41:29.327Z,12.25
2022-11-09T08:43:56.334Z,10.43
2022-11-09T08:46:23.278Z,10.40
2022-11-09T08:48:50.241Z,11.23
2022-11-09T08:51:17.271Z,10.18
2022-11-09T08:53:45.615Z,11.77
2022-11-09T08:56:12.963Z,9.45
2022-11-09T08:58:39.975Z,8.05
2022-11-09T09:01:12.294Z,16.02
2022-11-09T09:03:42.496Z,12.05
2022-11-09T09:06:09.687Z,10.93
2022-11-09T09:08:36.651Z,12.75
2022-11-09T09:11:06.067Z,11.88
2022-11-09T09:13:35.048Z,11.45
2022-11-09T09:16:11.644Z,10.98
2022-11-09T09:18:38.786Z,11.38
2022-11-09T09:21:07.620Z,10.73
2022-11-09T09:23:34.693Z,10.60
2022-11-09T09:26:01.796Z,11.30
2022-11-09T09:28:30.385Z,12.98
2022-11-09T09:30:59.759Z,10.85
2022-11-09T09:33:29.432Z,9.15
2022-11-09T09:35:57.396Z,8.00
2022-11-09T09:38:24.756Z,12.88
2022-11-09T09:40:58.533Z,11.02
2022-11-09T09:43:35.260Z,9.18
2022-11-09T09:46:12.169Z,10.05
2022-11-09T09:48:45.144Z,9.82
2022-11-09T09:51:21.832Z,9.18
2022-11-09T09:53:53.430Z,8.63
2022-11-09T09:56:24.789Z,8.20
2022-11-09T09:58:57.966Z,9.88
2022-11-09T10:01:35.537Z,9.55
2022-11-09T10:04:02.971Z,11.68
2022-11-09T10:06:41.428Z,7.63
2022-11-09T10:09:22.888Z,8.70
2022-11-09T10:12:01.685Z,11.45
2022-11-09T10:14:56.123Z,11.07
2022-11-09T10:17:35.295Z,11.90
2022-11-09T10:20:16.580Z,12.38
2022-11-09T10:25:37.645Z,12.88
2022-11-09T10:28:13.261Z,10.90
2022-11-09T10:30:42.303Z,8.15
2022-11-09T10:33:16.742Z,8.02
2022-11-09T10:35:48.859Z,9.43
2022-11-09T10:38:21.634Z,10.23
2022-11-09T10:41:24.302Z,8.48
2022-11-09T10:44:17.340Z,7.25
2022-11-09T10:47:07.968Z,12.75
2022-11-09T10:50:14.818Z,7.22
2022-11-09T10:53:11.208Z,9.05
2022-11-09T10:55:58.505Z,6.35
2022-11-09T10:58:48.384Z,12.27
2022-11-09T11:01:37.270Z,9.77
2022-11-09T11:04:26.101Z,16.08
2022-11-09T11:07:20.604Z,8.38
2022-11-09T11:10:11.235Z,8.82
2022-11-09T11:13:19.742Z,7.60
2022-11-09T11:16:15.763Z,5.75
2022-11-09T11:19:02.567Z,8.32
2022-11-09T11:22:10.460Z,9.98
2022-11-09T11:24:57.566Z,12.05
2022-11-09T11:27:46.337Z,7.07
2022-11-09T11:30:37.416Z,9.20
2022-11-09T11:33:23.707Z,9.35
2022-11-09T11:36:19.728Z,9.95
2022-11-09T11:39:15.729Z,13.30
2022-11-09T11:42:31.178Z,5.78
2022-11-09T11:45:40.186Z,11.68
2022-11-09T11:49:01.501Z,11.45
2022-11-09T11:51:55.231Z,10.45
2022-11-09T11:55:07.468Z,8.52
2022-11-09T11:58:06.879Z,5.80
2022-11-09T12:00:58.778Z,10.73
2022-11-09T12:04:02.658Z,5.45
2022-11-09T12:06:57.284Z,7.57
2022-11-09T12:10:02.686Z,9.10
2022-11-09T12:13:00.504Z,10.50
2022-11-09T12:15:54.384Z,7.95
2022-11-09T12:18:52.553Z,8.68
2022-11-09T12:21:44.112Z,9.38
2022-11-09T12:27:42.197Z,7.60
2022-11-09T12:30:43.337Z,7.93
2022-11-09T12:33:43.022Z,6.93
2022-11-09T12:36:37.802Z,9.50
2022-11-09T12:39:28.833Z,6.25
2022-11-09T12:42:18.926Z,7.43
2022-11-09T12:45:17.913Z,9.73
2022-11-09T12:48:11.726Z,5.28
2022-11-09T12:50:59.488Z,6.75
2022-11-09T12:53:45.571Z,6.05
2022-11-09T12:56:36.907Z,7.25
2022-11-09T12:59:35.529Z,6.25
2022-11-09T13:02:30.223Z,6.32
2022-11-09T13:05:32.057Z,6.55
2022-11-09T13:08:20.871Z,9.63
2022-11-09T13:11:19.063Z,10.50
2022-11-09T13:14:41.490Z,7.43
2022-11-09T13:18:00.279Z,11.98
2022-11-09T13:20:56.857Z,6.13
2022-11-09T13:26:56.729Z,6.35
2022-11-09T13:29:55.099Z,8.52
2022-11-09T13:33:17.657Z,5.20
2022-11-09T13:36:23.237Z,8.93
2022-11-09T13:39:30.766Z,6.65
2022-11-09T13:42:28.167Z,4.57
2022-11-09T13:45:28.110Z,7.05
2022-11-09T13:48:38.695Z,3.80
2022-11-09T13:51:41.508Z,6.15
2022-11-09T13:54:32.581Z,4.03
2022-11-09T14:00:07.051Z,7.07
2022-11-09T14:02:54.669Z,6.95
2022-11-09T14:05:41.988Z,7.45
2022-11-09T14:08:33.894Z,8.60
2022-11-09T14:11:51.202Z,6.10
2022-11-09T14:15:05.318Z,6.57
2022-11-09T14:18:02.579Z,6.72
2022-11-09T14:20:55.660Z,5.78
2022-11-09T14:23:43.230Z,5.95
2022-11-09T14:26:28.696Z,5.20
2022-11-09T14:29:21.437Z,4.75
2022-11-09T14:32:24.161Z,4.25
2022-11-09T14:35:24.341Z,5.18
2022-11-09T14:38:18.677Z,8.07
2022-11-09T14:41:19.364Z,7.10
2022-11-09T14:44:05.913Z,6.25
2022-11-09T14:46:53.763Z,2.92
2022-11-09T14:49:40.266Z,5.57
2022-11-09T14:52:29.917Z,4.85
2022-11-09T14:55:17.227Z,12.45
2022-11-09T14:58:04.608Z,5.15
2022-11-09T15:01:06.389Z,4.20
2022-11-09T15:04:17.555Z,5.00
2022-11-09T15:07:05.126Z,5.20
2022-11-09T15:09:55.263Z,5.00
2022-11-09T15:12:47.676Z,11.05
2022-11-09T15:15:35.659Z,6.07
2022-11-09T15:18:30.333Z,6.97
2022-11-09T15:21:20.906Z,4.28
2022-11-09T15:24:15.577Z,7.10
2022-11-09T15:27:01.281Z,3.97
2022-11-09T15:29:47.036Z,4.65
2022-11-09T15:32:38.412Z,6.72
2022-11-09T15:38:30.172Z,10.35
2022-11-09T15:41:18.383Z,7.63
2022-11-09T15:44:04.962Z,7.80
2022-11-09T15:46:52.694Z,6.38
2022-11-09T15:49:40.002Z,9.82
2022-11-09T15:52:25.989Z,8.23
2022-11-09T15:55:12.837Z,6.07
2022-11-09T15:57:58.480Z,9.57
2022-11-09T16:00:45.276Z,5.72
2022-11-09T20:04:55.843Z,17.67
2022-11-09T20:13:12.722Z,17.05
2022-11-09T20:16:03.742Z,18.00
2022-11-09T20:18:50.116Z,17.70
2022-11-09T20:21:40.251Z,10.55
2022-11-09T20:24:26.655Z,7.60
2022-11-09T20:27:12.527Z,11.07
2022-11-09T20:29:57.975Z,12.73
2022-11-09T20:32:44.907Z,13.10
2022-11-09T20:35:30.835Z,14.95
2022-11-09T20:38:16.674Z,15.82
2022-11-09T20:41:04.892Z,10.85
2022-11-09T20:43:50.379Z,10.85
2022-11-09T20:46:36.924Z,13.00
2022-11-09T20:49:24.186Z,16.55
2022-11-09T20:52:09.698Z,15.60
2022-11-09T20:54:55.472Z,13.82
2022-11-09T20:57:41.671Z,12.57
2022-11-09T21:00:27.652Z,16.00
2022-11-09T21:03:13.310Z,18.15
2022-11-09T21:06:01.476Z,14.52
2022-11-09T21:08:47.953Z,15.43
2022-11-09T21:11:36.247Z,12.95
2022-11-09T21:14:21.958Z,14.63
2022-11-09T21:17:07.362Z,16.42
2022-11-09T21:19:53.223Z,13.15
2022-11-09T21:22:59.386Z,21.48
2022-11-09T21:26:03.866Z,16.58
2022-11-09T21:29:08.112Z,19.65
2022-11-09T21:31:53.809Z,18.38
2022-11-09T21:34:39.696Z,12.90
2022-11-09T21:37:25.743Z,12.68
2022-11-09T21:40:13.898Z,21.58
2022-11-09T21:42:59.599Z,16.10
2022-11-09T21:45:49.425Z,12.35
2022-11-09T21:48:35.366Z,16.35
2022-11-09T21:51:21.650Z,16.52
2022-11-09T21:54:09.739Z,17.65
2022-11-09T21:56:56.795Z,15.93
2022-11-09T21:59:42.608Z,14.63
2022-11-09T22:02:28.181Z,16.35
2022-11-09T22:05:14.939Z,14.20
2022-11-09T22:08:02.653Z,16.90
2022-11-09T22:10:48.257Z,19.23
2022-11-09T22:13:54.424Z,19.42
2022-11-09T22:16:39.976Z,12.82
2022-11-09T22:19:44.860Z,23.25
2022-11-09T22:22:31.207Z,13.23
2022-11-09T22:25:16.871Z,20.75
2022-11-09T22:28:02.779Z,14.15
2022-11-09T22:30:49.490Z,15.65
2022-11-09T22:33:35.167Z,17.48
2022-11-09T22:36:23.182Z,15.35
2022-11-09T22:39:09.096Z,21.35
2022-11-09T22:41:54.658Z,14.40
2022-11-09T22:44:40.191Z,19.27
2022-11-09T22:47:26.890Z,21.35
2022-11-09T22:50:13.166Z,24.80
2022-11-09T22:53:03.452Z,30.05
2022-11-09T22:55:52.881Z,17.97
2022-11-09T22:58:38.623Z,15.63
2022-11-09T23:01:24.443Z,16.20
2022-11-09T23:04:11.514Z,18.83
2022-11-09T23:06:57.369Z,23.00
2022-11-09T23:09:43.123Z,17.30
2022-11-09T23:12:28.673Z,19.15
2022-11-09T23:15:14.701Z,18.35
2022-11-09T23:18:19.158Z,22.00
2022-11-09T23:21:06.366Z,19.05
2022-11-09T23:23:53.148Z,12.55
2022-11-09T23:26:38.891Z,23.80
2022-11-09T23:29:24.209Z,20.60
2022-11-09T23:32:10.142Z,24.85
2022-11-09T23:34:55.656Z,20.42
2022-11-09T23:37:42.738Z,17.63
2022-11-09T23:40:28.972Z,22.90
2022-11-09T23:43:16.300Z,19.23
2022-11-09T23:46:03.212Z,17.98
2022-11-09T23:48:48.774Z,24.23
2022-11-09T23:51:34.446Z,15.75
2022-11-09T23:54:21.546Z,24.50
2022-11-09T23:57:07.180Z,20.25
2022-11-09T23:59:52.571Z,20.75
